createdAt,value
2018-10-02T00:00:04.305Z,71.80
2018-10-02T00:00:35.407Z,69.05
2018-10-02T00:01:06.557Z,66.40
2018-10-02T00:01:37.680Z,69.25
2018-10-02T00:02:08.820Z,73.92
2018-10-02T00:02:39.975Z,67.30
2018-10-02T00:03:11.076Z,60.73
2018-10-02T00:03:42.185Z,58.80
2018-10-02T00:04:13.300Z,67.05
2018-10-02T00:04:44.393Z,61.37
2018-10-02T00:05:15.502Z,64.87
2018-10-02T00:05:46.614Z,65.17
2018-10-02T00:06:17.733Z,60.05
2018-10-02T00:06:48.840Z,58.95
2018-10-02T00:07:19.977Z,64.60
2018-10-02T00:07:51.111Z,64.30
2018-10-02T00:08:22.210Z,59.98
2018-10-02T00:08:53.340Z,63.73
2018-10-02T00:09:24.477Z,59.48
2018-10-02T00:09:55.569Z,62.45
2018-10-02T00:10:26.680Z,65.22
2018-10-02T00:10:57.794Z,64.25
2018-10-02T00:11:28.930Z,61.02
2018-10-02T00:12:00.033Z,58.13
2018-10-02T00:12:31.149Z,51.83
2018-10-02T00:13:02.246Z,52.27
2018-10-02T00:13:33.347Z,52.30
2018-10-02T00:14:04.501Z,51.50
2018-10-02T00:14:35.616Z,47.83
2018-10-02T00:15:06.769Z,49.33
2018-10-02T00:15:37.911Z,46.20
2018-10-02T00:16:09.028Z,50.17
2018-10-02T00:16:40.176Z,47.23
2018-10-02T00:17:11.332Z,45.75
2018-10-02T00:17:42.444Z,43.80
2018-10-02T00:18:13.542Z,40.67
2018-10-02T00:18:44.645Z,43.92
2018-10-02T00:19:15.755Z,43.68
2018-10-02T00:19:46.856Z,46.70
2018-10-02T00:20:18.022Z,46.02
2018-10-02T00:20:49.123Z,46.50
2018-10-02T00:21:20.278Z,46.18
2018-10-02T00:21:51.387Z,45.85
2018-10-02T00:22:22.557Z,49.95
2018-10-02T00:22:53.649Z,50.30
2018-10-02T00:23:24.770Z,49.45
2018-10-02T00:23:55.892Z,51.18
2018-10-02T00:24:26.997Z,51.18
2018-10-02T00:24:58.104Z,52.17
2018-10-02T00:25:29.262Z,51.83
2018-10-02T00:26:00.418Z,55.58
2018-10-02T00:26:31.525Z,53.38
2018-10-02T00:27:02.673Z,53.87
2018-10-02T00:27:33.789Z,56.83
2018-10-02T00:28:04.935Z,57.05
2018-10-02T00:28:36.051Z,53.40
2018-10-02T00:29:07.162Z,48.78
2018-10-02T00:29:38.294Z,52.38
2018-10-02T00:30:09.453Z,53.98
2018-10-02T00:30:40.634Z,55.17
2018-10-02T00:31:11.749Z,50.03
2018-10-02T00:31:42.894Z,53.73
2018-10-02T00:32:14.137Z,53.42
2018-10-02T00:32:45.196Z,57.75
2018-10-02T00:33:16.320Z,59.25
2018-10-02T00:33:47.439Z,57.90
2018-10-02T00:34:18.545Z,58.33
2018-10-02T00:34:49.653Z,61.55
2018-10-02T00:35:20.746Z,61.30
2018-10-02T00:35:51.893Z,62.83
2018-10-02T00:36:23.024Z,61.73
2018-10-02T00:36:54.122Z,71.30
2018-10-02T00:37:25.253Z,68.33
2018-10-02T00:37:56.402Z,66.28
2018-10-02T00:38:27.503Z,68.90
2018-10-02T00:38:58.635Z,69.72
2018-10-02T00:39:29.765Z,70.00
2018-10-02T00:40:00.857Z,71.47
2018-10-02T00:40:31.977Z,73.50
2018-10-02T00:41:03.086Z,74.27
2018-10-02T00:41:34.217Z,77.53
2018-10-02T00:42:05.406Z,68.45
2018-10-02T00:42:36.625Z,70.05
2018-10-02T00:43:07.750Z,74.60
2018-10-02T00:43:38.855Z,74.67
2018-10-02T00:44:09.962Z,81.35
2018-10-02T00:44:41.105Z,76.57
2018-10-02T00:45:12.219Z,82.50
2018-10-02T00:45:43.335Z,79.05
2018-10-02T00:46:14.439Z,77.55
2018-10-02T00:46:45.581Z,79.90
2018-10-02T00:47:16.700Z,89.30
2018-10-02T00:47:47.810Z,85.75
2018-10-02T00:48:18.913Z,85.67
2018-10-02T00:48:50.030Z,86.57
2018-10-02T00:49:21.122Z,97.90
2018-10-02T00:49:52.270Z,81.87
2018-10-02T00:50:23.368Z,93.35
2018-10-02T00:50:54.514Z,88.55
2018-10-02T00:51:25.633Z,94.42
2018-10-02T00:51:56.743Z,98.60
2018-10-02T00:52:27.863Z,95.85
2018-10-02T00:52:59.025Z,93.27
2018-10-02T00:53:30.166Z,93.72
2018-10-02T00:54:01.279Z,101.15
2018-10-02T00:54:32.390Z,98.15
2018-10-02T00:55:03.490Z,93.47
2018-10-02T00:55:34.637Z,87.15
2018-10-02T00:56:05.767Z,93.47
2018-10-02T00:56:36.894Z,86.28
2018-10-02T00:57:07.994Z,89.62
2018-10-02T00:57:39.087Z,96.08
2018-10-02T00:58:10.197Z,91.02
2018-10-02T00:58:41.309Z,95.70
2018-10-02T00:59:12.431Z,91.05
2018-10-02T00:59:43.583Z,90.55
2018-10-02T01:00:14.704Z,76.10
2018-10-02T01:00:45.837Z,86.87
2018-10-02T01:01:16.955Z,77.75
2018-10-02T01:01:48.054Z,80.62
2018-10-02T01:02:19.176Z,81.67
2018-10-02T01:02:50.314Z,85.05
2018-10-02T01:03:21.463Z,74.07
2018-10-02T01:03:52.569Z,64.37
2018-10-02T01:04:23.686Z,80.92
2018-10-02T01:04:54.815Z,72.42
2018-10-02T01:05:26.098Z,66.97
2018-10-02T01:05:57.207Z,66.17
2018-10-02T01:06:28.339Z,69.03
2018-10-02T01:06:59.492Z,62.27
2018-10-02T01:07:30.621Z,65.50
2018-10-02T01:08:01.731Z,67.35
2018-10-02T01:08:32.835Z,61.35
2018-10-02T01:09:03.936Z,63.73
2018-10-02T01:09:35.039Z,53.50
2018-10-02T01:10:06.180Z,59.33
2018-10-02T01:10:37.337Z,54.10
2018-10-02T01:11:08.442Z,52.67
2018-10-02T01:11:39.577Z,57.30
2018-10-02T01:12:10.678Z,59.20
2018-10-02T01:12:41.798Z,54.03
2018-10-02T01:13:12.959Z,55.63
2018-10-02T01:13:44.068Z,58.65
2018-10-02T01:14:15.213Z,60.30
2018-10-02T01:14:46.425Z,57.48
2018-10-02T01:15:17.546Z,54.63
2018-10-02T01:15:48.663Z,56.95
2018-10-02T01:16:19.816Z,58.42
2018-10-02T01:16:50.922Z,60.73
2018-10-02T01:17:22.018Z,61.48
2018-10-02T01:17:53.137Z,59.33
2018-10-02T01:18:24.243Z,63.20
2018-10-02T01:18:55.393Z,62.70
2018-10-02T01:19:26.526Z,56.53
2018-10-02T01:19:57.647Z,58.80
2018-10-02T01:20:28.754Z,58.63
2018-10-02T01:20:59.929Z,60.55
2018-10-02T01:21:31.027Z,55.58
2018-10-02T01:22:02.158Z,52.45
2018-10-02T01:22:33.261Z,52.80
2018-10-02T01:23:04.376Z,59.55
2018-10-02T01:23:35.503Z,59.75
2018-10-02T01:24:06.662Z,60.58
2018-10-02T01:24:37.771Z,61.70
2018-10-02T01:25:08.888Z,56.48
2018-10-02T01:25:39.994Z,51.13
2018-10-02T01:26:11.105Z,50.48
2018-10-02T01:26:42.233Z,52.45
2018-10-02T01:27:13.352Z,50.10
2018-10-02T01:27:44.516Z,45.90
2018-10-02T01:28:15.618Z,47.08
2018-10-02T01:28:46.762Z,48.98
2018-10-02T01:29:17.927Z,44.90
2018-10-02T01:29:49.038Z,46.85
2018-10-02T01:30:20.185Z,44.73
2018-10-02T01:30:51.315Z,44.90
2018-10-02T01:31:22.424Z,45.23
2018-10-02T01:31:53.549Z,45.08
2018-10-02T01:32:24.686Z,45.43
2018-10-02T01:32:55.795Z,42.98
2018-10-02T01:33:26.904Z,41.25
2018-10-02T01:33:58.054Z,43.23
2018-10-02T01:34:29.202Z,42.60
2018-10-02T01:35:00.348Z,38.17
2018-10-02T01:35:31.489Z,38.83
2018-10-02T01:36:02.614Z,37.80
2018-10-02T01:36:33.752Z,38.42
2018-10-02T01:37:04.863Z,38.02
2018-10-02T01:37:35.985Z,36.58
2018-10-02T01:38:07.102Z,37.88
2018-10-02T01:38:38.215Z,37.33
2018-10-02T01:39:09.318Z,37.15
2018-10-02T01:39:40.484Z,36.73
2018-10-02T01:40:11.618Z,36.28
2018-10-02T01:40:42.732Z,34.53
2018-10-02T01:41:13.857Z,36.58
2018-10-02T01:41:44.961Z,36.15
2018-10-02T01:42:16.089Z,37.03
2018-10-02T01:42:47.206Z,36.48
2018-10-02T01:43:18.362Z,38.13
2018-10-02T01:43:49.502Z,34.98
2018-10-02T01:44:20.625Z,39.75
2018-10-02T01:44:51.812Z,37.70
2018-10-02T01:45:23.254Z,35.23
2018-10-02T01:45:54.380Z,34.65
2018-10-02T01:46:25.483Z,35.30
2018-10-02T01:46:56.588Z,33.35
2018-10-02T01:47:27.699Z,35.65
2018-10-02T01:47:58.801Z,33.92
2018-10-02T01:48:29.921Z,31.93
2018-10-02T01:49:01.062Z,34.35
2018-10-02T01:49:32.166Z,31.02
2018-10-02T01:50:03.333Z,31.07
2018-10-02T01:50:34.485Z,33.85
2018-10-02T01:51:05.641Z,31.70
2018-10-02T01:51:36.751Z,30.02
2018-10-02T01:52:07.868Z,29.67
2018-10-02T01:52:39.035Z,32.17
2018-10-02T01:53:10.151Z,32.70
2018-10-02T01:53:41.253Z,31.57
2018-10-02T01:54:12.354Z,33.98
2018-10-02T01:54:43.448Z,35.25
2018-10-02T01:55:14.559Z,35.60
2018-10-02T01:55:45.661Z,37.63
2018-10-02T01:56:16.863Z,36.77
2018-10-02T01:56:47.978Z,34.83
2018-10-02T01:57:19.069Z,36.03
2018-10-02T01:57:50.193Z,36.08
2018-10-02T01:58:21.344Z,38.05
2018-10-02T01:58:52.473Z,36.40
2018-10-02T01:59:23.586Z,37.98
2018-10-02T01:59:54.694Z,34.50
2018-10-02T02:00:25.807Z,38.38
2018-10-02T02:00:56.947Z,37.28
2018-10-02T02:01:28.077Z,40.08
2018-10-02T02:01:59.186Z,38.65
2018-10-02T02:02:30.362Z,34.05
2018-10-02T02:03:01.467Z,37.03
2018-10-02T02:03:32.590Z,35.98
2018-10-02T02:04:03.710Z,37.60
2018-10-02T02:04:34.810Z,37.67
2018-10-02T02:05:05.927Z,37.55
2018-10-02T02:05:37.126Z,41.23
2018-10-02T02:06:08.252Z,40.05
2018-10-02T02:06:39.369Z,42.62
2018-10-02T02:07:10.485Z,38.50
2018-10-02T02:07:41.678Z,41.83
2018-10-02T02:08:12.801Z,44.18
2018-10-02T02:08:43.910Z,39.45
2018-10-02T02:09:15.019Z,39.15
2018-10-02T02:09:46.164Z,37.33
2018-10-02T02:10:17.276Z,39.78
2018-10-02T02:10:48.401Z,37.70
2018-10-02T02:11:19.504Z,35.33
2018-10-02T02:11:50.614Z,40.67
2018-10-02T02:12:21.722Z,41.60
2018-10-02T02:12:52.864Z,42.65
2018-10-02T02:13:23.976Z,40.48
2018-10-02T02:13:55.072Z,46.10
2018-10-02T02:14:26.179Z,48.05
2018-10-02T02:14:57.287Z,44.80
2018-10-02T02:15:28.401Z,45.63
2018-10-02T02:15:59.516Z,51.40
2018-10-02T02:16:30.628Z,48.83
2018-10-02T02:17:01.744Z,46.70
2018-10-02T02:17:32.895Z,52.30
2018-10-02T02:18:04.035Z,47.67
2018-10-02T02:18:35.178Z,48.92
2018-10-02T02:19:06.304Z,50.43
2018-10-02T02:19:37.403Z,51.48
2018-10-02T02:20:08.549Z,47.50
2018-10-02T02:20:39.647Z,42.85
2018-10-02T02:21:10.764Z,47.35
2018-10-02T02:21:41.901Z,47.53
2018-10-02T02:22:13.006Z,45.33
2018-10-02T02:22:44.125Z,44.33
2018-10-02T02:23:15.286Z,42.70
2018-10-02T02:23:46.393Z,44.85
2018-10-02T02:24:17.514Z,44.03
2018-10-02T02:24:48.667Z,45.73
2018-10-02T02:25:19.789Z,45.92
2018-10-02T02:25:50.908Z,42.53
2018-10-02T02:26:22.028Z,40.40
2018-10-02T02:26:53.137Z,40.33
2018-10-02T02:27:24.242Z,36.00
2018-10-02T02:27:55.363Z,42.13
2018-10-02T02:28:26.510Z,38.92
2018-10-02T02:28:57.640Z,39.73
2018-10-02T02:29:28.758Z,43.28
2018-10-02T02:29:59.861Z,35.20
2018-10-02T02:30:30.979Z,37.23
2018-10-02T02:31:02.110Z,33.45
2018-10-02T02:31:33.221Z,35.75
2018-10-02T02:32:04.332Z,36.40
2018-10-02T02:32:35.430Z,32.30
2018-10-02T02:33:06.566Z,37.05
2018-10-02T02:33:37.679Z,34.63
2018-10-02T02:34:08.789Z,33.67
2018-10-02T02:34:39.940Z,39.30
2018-10-02T02:35:11.071Z,35.73
2018-10-02T02:35:42.190Z,32.03
2018-10-02T02:36:13.290Z,31.12
2018-10-02T02:36:44.393Z,30.52
2018-10-02T02:37:15.504Z,30.27
2018-10-02T02:37:46.646Z,32.88
2018-10-02T02:38:17.774Z,31.75
2018-10-02T02:38:48.894Z,30.88
2018-10-02T02:39:19.998Z,30.00
2018-10-02T02:39:51.114Z,28.65
2018-10-02T02:40:22.237Z,29.60
2018-10-02T02:40:53.400Z,28.30
2018-10-02T02:41:24.562Z,32.25
2018-10-02T02:41:55.744Z,29.00
2018-10-02T02:42:26.866Z,29.63
2018-10-02T02:42:57.988Z,29.50
2018-10-02T02:43:29.095Z,28.52
2018-10-02T02:44:00.222Z,29.07
2018-10-02T02:44:31.334Z,30.70
2018-10-02T02:45:02.438Z,26.23
2018-10-02T02:45:33.606Z,27.70
2018-10-02T02:46:04.712Z,27.25
2018-10-02T02:46:35.830Z,25.90
2018-10-02T02:47:06.965Z,29.80
2018-10-02T02:47:38.086Z,27.32
2018-10-02T02:48:09.221Z,30.68
2018-10-02T02:48:40.324Z,30.17
2018-10-02T02:49:11.482Z,32.85
2018-10-02T02:49:42.607Z,30.40
2018-10-02T02:50:13.733Z,28.60
2018-10-02T02:50:44.870Z,28.12
2018-10-02T02:51:16.033Z,33.35
2018-10-02T02:51:47.127Z,26.15
2018-10-02T02:52:18.238Z,27.37
2018-10-02T02:52:49.346Z,31.37
2018-10-02T02:53:20.470Z,29.18
2018-10-02T02:53:51.575Z,25.97
2018-10-02T02:54:22.683Z,27.05
2018-10-02T02:54:53.817Z,27.30
2018-10-02T02:55:24.936Z,29.40
2018-10-02T02:55:56.052Z,28.73
2018-10-02T02:56:27.231Z,26.20
2018-10-02T02:56:58.360Z,26.00
2018-10-02T02:57:29.457Z,24.75
2018-10-02T02:58:00.560Z,26.30
2018-10-02T02:58:31.676Z,26.97
2018-10-02T02:59:02.777Z,26.65
2018-10-02T02:59:33.882Z,25.17
2018-10-02T03:00:04.985Z,23.32
2018-10-02T03:00:36.096Z,23.32
2018-10-02T03:01:07.192Z,26.90
2018-10-02T03:01:38.340Z,24.55
2018-10-02T03:02:09.451Z,22.58
2018-10-02T03:02:40.573Z,24.50
2018-10-02T03:03:11.684Z,26.17
2018-10-02T03:03:42.781Z,23.20
2018-10-02T03:04:13.889Z,22.65
2018-10-02T03:04:45.033Z,25.00
2018-10-02T03:05:16.136Z,26.75
2018-10-02T03:05:47.262Z,22.85
2018-10-02T03:06:18.429Z,24.85
2018-10-02T03:06:49.541Z,23.65
2018-10-02T03:07:20.637Z,23.27
2018-10-02T03:07:51.733Z,24.00
2018-10-02T03:08:22.867Z,24.47
2018-10-02T03:08:53.975Z,23.85
2018-10-02T03:09:25.151Z,23.87
2018-10-02T03:09:56.247Z,23.50
2018-10-02T03:10:27.358Z,24.12
2018-10-02T03:10:58.477Z,25.55
2018-10-02T03:11:29.588Z,24.05
2018-10-02T03:12:00.705Z,21.20
2018-10-02T03:12:31.835Z,24.82
2018-10-02T03:13:02.994Z,25.90
2018-10-02T03:13:34.131Z,22.48
2018-10-02T03:14:05.228Z,25.30
2018-10-02T03:14:36.332Z,27.62
2018-10-02T03:15:07.474Z,23.52
2018-10-02T03:15:38.594Z,25.72
2018-10-02T03:16:09.686Z,22.17
2018-10-02T03:16:40.837Z,22.55
2018-10-02T03:17:11.972Z,27.95
2018-10-02T03:17:43.088Z,27.00
2018-10-02T03:18:14.202Z,29.72
2018-10-02T03:18:45.309Z,30.62
2018-10-02T03:19:16.395Z,27.62
2018-10-02T03:19:47.506Z,24.43
2018-10-02T03:20:18.658Z,27.25
2018-10-02T03:20:49.770Z,21.05
2018-10-02T03:21:20.891Z,21.05
2018-10-02T03:21:52.192Z,22.82
2018-10-02T03:22:23.184Z,24.05
2018-10-02T03:22:54.303Z,28.98
2018-10-02T03:23:25.438Z,25.20
2018-10-02T03:23:56.548Z,25.17
2018-10-02T03:24:27.643Z,23.80
2018-10-02T03:24:58.739Z,24.00
2018-10-02T03:25:29.899Z,23.90
2018-10-02T03:26:01.026Z,26.02
2018-10-02T03:26:32.140Z,22.65
2018-10-02T03:27:03.258Z,24.15
2018-10-02T03:27:34.361Z,22.55
2018-10-02T03:28:05.473Z,25.55
2018-10-02T03:28:36.589Z,22.58
2018-10-02T03:29:07.731Z,22.20
2018-10-02T03:29:38.831Z,21.73
2018-10-02T03:30:09.935Z,20.45
2018-10-02T03:30:41.073Z,21.45
2018-10-02T03:31:12.184Z,19.52
2018-10-02T03:31:43.286Z,20.37
2018-10-02T03:32:14.387Z,21.73
2018-10-02T03:32:45.515Z,23.27
2018-10-02T03:33:16.619Z,29.75
2018-10-02T03:33:47.761Z,23.55
2018-10-02T03:34:18.873Z,26.80
2018-10-02T03:34:49.993Z,23.42
2018-10-02T03:35:21.100Z,24.77
2018-10-02T03:35:52.226Z,20.95
2018-10-02T03:36:23.379Z,22.58
2018-10-02T03:36:54.512Z,24.02
2018-10-02T03:37:25.635Z,24.92
2018-10-02T03:37:56.760Z,21.35
2018-10-02T03:38:27.941Z,21.87
2018-10-02T03:38:59.068Z,20.30
2018-10-02T03:39:30.268Z,19.37
2018-10-02T03:40:01.354Z,22.27
2018-10-02T03:40:32.460Z,20.45
2018-10-02T03:41:03.586Z,19.70
2018-10-02T03:41:34.707Z,21.12
2018-10-02T03:42:05.844Z,20.82
2018-10-02T03:42:37.033Z,19.82
2018-10-02T03:43:08.159Z,17.48
2018-10-02T03:43:39.295Z,16.55
2018-10-02T03:44:10.421Z,17.70
2018-10-02T03:44:41.526Z,16.17
2018-10-02T03:45:12.641Z,15.90
2018-10-02T03:45:43.799Z,15.68
2018-10-02T03:46:14.894Z,13.40
2018-10-02T03:46:45.990Z,14.10
2018-10-02T03:47:17.101Z,14.38
2018-10-02T03:47:48.204Z,13.53
2018-10-02T03:48:19.304Z,13.25
2018-10-02T03:48:50.509Z,13.00
2018-10-02T03:49:21.620Z,14.90
2018-10-02T03:49:52.731Z,16.60
2018-10-02T03:50:23.855Z,14.33
2018-10-02T03:50:54.953Z,14.38
2018-10-02T03:51:26.093Z,17.00
2018-10-02T03:51:57.219Z,13.78
2018-10-02T03:52:28.333Z,12.47
2018-10-02T03:52:59.437Z,10.43
2018-10-02T03:53:30.601Z,10.78
2018-10-02T03:54:01.730Z,11.60
2018-10-02T03:54:32.872Z,12.93
2018-10-02T03:55:04.002Z,18.40
2018-10-02T03:55:35.118Z,20.75
2018-10-02T03:56:06.235Z,19.55
2018-10-02T03:56:37.330Z,16.55
2018-10-02T03:57:08.444Z,14.18
2018-10-02T03:57:39.555Z,14.90
2018-10-02T03:58:10.726Z,13.72
2018-10-02T03:58:41.856Z,15.23
2018-10-02T03:59:12.965Z,19.67
2018-10-02T03:59:44.093Z,16.17
2018-10-02T04:00:15.254Z,12.33
2018-10-02T04:00:46.383Z,14.47
2018-10-02T04:01:17.485Z,17.20
2018-10-02T04:01:48.603Z,17.85
2018-10-02T04:02:19.713Z,17.02
2018-10-02T04:02:50.873Z,18.98
2018-10-02T04:03:22.133Z,15.60
2018-10-02T04:03:53.207Z,15.58
2018-10-02T04:04:24.335Z,14.75
2018-10-02T04:04:55.490Z,16.85
2018-10-02T04:05:26.591Z,17.15
2018-10-02T04:05:57.726Z,18.60
2018-10-02T04:06:28.821Z,12.75
2018-10-02T04:06:59.956Z,12.18
2018-10-02T04:07:31.092Z,12.80
2018-10-02T04:08:02.215Z,14.70
2018-10-02T04:08:33.353Z,15.83
2018-10-02T04:09:04.450Z,19.65
2018-10-02T04:09:35.599Z,21.25
2018-10-02T04:10:06.711Z,19.10
2018-10-02T04:10:37.897Z,18.62
2018-10-02T04:11:09.015Z,18.67
2018-10-02T04:11:40.132Z,19.52
2018-10-02T04:12:11.238Z,19.75
2018-10-02T04:12:42.345Z,20.65
2018-10-02T04:13:13.530Z,20.50
2018-10-02T04:13:44.594Z,19.73
2018-10-02T04:14:15.706Z,20.65
2018-10-02T04:14:46.832Z,19.85
2018-10-02T04:15:17.957Z,19.48
2018-10-02T04:15:49.101Z,18.17
2018-10-02T04:16:20.197Z,18.17
2018-10-02T04:16:51.306Z,16.27
2018-10-02T04:17:22.440Z,16.25
2018-10-02T04:17:53.537Z,16.75
2018-10-02T04:18:24.633Z,20.95
2018-10-02T04:18:55.758Z,22.58
2018-10-02T04:19:26.854Z,18.65
2018-10-02T04:19:57.989Z,18.12
2018-10-02T04:20:29.127Z,20.23
2018-10-02T04:21:00.268Z,20.50
2018-10-02T04:21:31.387Z,22.62
2018-10-02T04:22:02.507Z,22.13
2018-10-02T04:22:33.633Z,22.22
2018-10-02T04:23:04.741Z,18.32
2018-10-02T04:23:35.845Z,20.20
2018-10-02T04:24:06.950Z,20.80
2018-10-02T04:24:38.105Z,22.82
2018-10-02T04:25:09.230Z,22.87
2018-10-02T04:25:40.387Z,24.40
2018-10-02T04:26:11.523Z,22.65
2018-10-02T04:26:42.648Z,23.10
2018-10-02T04:27:13.781Z,27.80
2018-10-02T04:27:44.937Z,24.55
2018-10-02T04:28:16.117Z,20.88
2018-10-02T04:28:47.209Z,21.95
2018-10-02T04:29:18.373Z,26.15
2018-10-02T04:29:49.477Z,24.95
2018-10-02T04:30:20.595Z,25.00
2018-10-02T04:30:51.749Z,21.55
2018-10-02T04:31:22.855Z,23.83
2018-10-02T04:31:54.019Z,21.82
2018-10-02T04:32:25.145Z,20.62
2018-10-02T04:32:56.293Z,23.65
2018-10-02T04:33:27.408Z,21.77
2018-10-02T04:33:58.609Z,22.50
2018-10-02T04:34:29.709Z,20.00
2018-10-02T04:35:00.841Z,20.62
2018-10-02T04:35:31.954Z,21.40
2018-10-02T04:36:03.101Z,23.73
2018-10-02T04:36:34.216Z,23.65
2018-10-02T04:37:05.347Z,24.23
2018-10-02T04:37:36.456Z,26.07
2018-10-02T04:38:07.565Z,25.12
2018-10-02T04:38:38.688Z,23.12
2018-10-02T04:39:09.881Z,24.95
2018-10-02T04:39:41.017Z,23.77
2018-10-02T04:40:12.125Z,23.90
2018-10-02T04:40:43.219Z,26.00
2018-10-02T04:41:14.318Z,23.38
2018-10-02T04:41:45.432Z,26.27
2018-10-02T04:42:16.561Z,23.42
2018-10-02T04:42:47.678Z,25.97
2018-10-02T04:43:18.820Z,20.97
2018-10-02T04:43:49.924Z,24.07
2018-10-02T04:44:21.045Z,25.25
2018-10-02T04:44:52.171Z,23.10
2018-10-02T04:45:23.270Z,23.50
2018-10-02T04:45:54.379Z,22.85
2018-10-02T04:46:25.520Z,23.77
2018-10-02T04:46:56.677Z,26.57
2018-10-02T04:47:27.806Z,21.93
2018-10-02T04:47:58.955Z,20.85
2018-10-02T04:48:30.071Z,23.77
2018-10-02T04:49:01.208Z,27.05
2018-10-02T04:49:32.306Z,24.18
2018-10-02T04:50:03.441Z,24.23
2018-10-02T04:50:34.577Z,23.02
2018-10-02T04:51:05.766Z,22.90
2018-10-02T04:51:36.873Z,23.52
2018-10-02T04:52:07.981Z,26.62
2018-10-02T04:52:39.118Z,21.55
2018-10-02T04:53:10.220Z,27.90
2018-10-02T04:53:41.352Z,23.65
2018-10-02T04:54:12.479Z,26.10
2018-10-02T04:54:43.582Z,23.18
2018-10-02T04:55:14.743Z,24.92
2018-10-02T04:55:45.921Z,22.32
2018-10-02T04:56:17.074Z,27.40
2018-10-02T04:56:48.209Z,23.12
2018-10-02T04:57:19.319Z,23.65
2018-10-02T04:57:50.417Z,25.75
2018-10-02T04:58:21.526Z,25.32
2018-10-02T04:58:52.631Z,22.05
2018-10-02T04:59:23.754Z,22.05
2018-10-02T04:59:54.861Z,22.30
2018-10-02T05:00:26.016Z,25.10
2018-10-02T05:00:57.131Z,26.40
2018-10-02T05:01:28.291Z,21.95
2018-10-02T05:01:59.414Z,22.52
2018-10-02T05:02:30.525Z,25.30
2018-10-02T05:03:01.658Z,26.02
2018-10-02T05:03:32.776Z,23.00
2018-10-02T05:04:03.904Z,22.95
2018-10-02T05:04:35.027Z,25.08
2018-10-02T05:05:06.207Z,22.75
2018-10-02T05:05:37.317Z,21.42
2018-10-02T05:06:08.426Z,20.00
2018-10-02T05:06:39.545Z,24.70
2018-10-02T05:07:10.768Z,19.10
2018-10-02T05:07:41.882Z,13.88
2018-10-02T05:08:13.003Z,18.67
2018-10-02T05:08:44.152Z,16.90
2018-10-02T05:09:15.260Z,19.10
2018-10-02T05:09:46.452Z,22.07
2018-10-02T05:10:17.641Z,21.27
2018-10-02T05:10:48.752Z,23.45
2018-10-02T05:11:19.871Z,22.27
2018-10-02T05:11:50.984Z,18.12
2018-10-02T05:12:22.091Z,20.02
2018-10-02T05:12:53.204Z,22.67
2018-10-02T05:13:24.314Z,21.35
2018-10-02T05:13:55.447Z,19.30
2018-10-02T05:14:26.570Z,25.45
2018-10-02T05:14:57.717Z,23.98
2018-10-02T05:15:28.872Z,24.92
2018-10-02T05:16:00.008Z,26.00
2018-10-02T05:16:31.148Z,20.57
2018-10-02T05:17:02.249Z,23.35
2018-10-02T05:17:33.344Z,25.17
2018-10-02T05:18:04.508Z,24.30
2018-10-02T05:18:35.665Z,20.40
2018-10-02T05:19:06.806Z,19.35
2018-10-02T05:19:37.932Z,22.95
2018-10-02T05:20:09.034Z,17.87
2018-10-02T05:20:40.239Z,22.67
2018-10-02T05:21:11.335Z,20.77
2018-10-02T05:21:42.455Z,24.40
2018-10-02T05:22:13.555Z,24.07
2018-10-02T05:22:44.667Z,22.85
2018-10-02T05:23:15.798Z,19.60
2018-10-02T05:23:46.909Z,17.15
2018-10-02T05:24:18.016Z,21.50
2018-10-02T05:24:49.124Z,15.25
2018-10-02T05:25:20.235Z,15.63
2018-10-02T05:25:51.382Z,21.20
2018-10-02T05:26:22.534Z,21.05
2018-10-02T05:26:53.627Z,14.60
2018-10-02T05:27:24.828Z,18.92
2018-10-02T05:27:55.899Z,22.37
2018-10-02T05:28:27.014Z,18.52
2018-10-02T05:28:58.112Z,18.23
2018-10-02T05:29:29.270Z,17.45
2018-10-02T05:30:00.384Z,15.43
2018-10-02T05:30:31.495Z,15.75
2018-10-02T05:31:02.614Z,20.02
2018-10-02T05:31:33.786Z,17.60
2018-10-02T05:32:04.908Z,19.25
2018-10-02T05:32:36.026Z,17.62
2018-10-02T05:33:07.180Z,17.48
2018-10-02T05:33:38.372Z,19.00
2018-10-02T05:34:09.463Z,15.98
2018-10-02T05:34:40.620Z,15.50
2018-10-02T05:35:11.899Z,18.00
2018-10-02T05:35:42.890Z,17.77
2018-10-02T05:36:13.993Z,11.68
2018-10-02T05:36:45.142Z,16.07
2018-10-02T05:37:16.241Z,22.00
2018-10-02T05:37:47.368Z,20.32
2018-10-02T05:38:18.473Z,26.05
2018-10-02T05:38:49.589Z,29.90
2018-10-02T05:39:20.682Z,30.00
2018-10-02T05:39:51.842Z,27.30
2018-10-02T05:40:22.970Z,20.90
2018-10-02T05:40:54.093Z,22.07
2018-10-02T05:41:25.207Z,22.10
2018-10-02T05:41:56.344Z,27.15
2018-10-02T05:42:27.473Z,22.58
2018-10-02T05:42:58.568Z,23.10
2018-10-02T05:43:29.695Z,18.37
2018-10-02T05:44:00.805Z,22.37
2018-10-02T05:44:31.922Z,28.80
2018-10-02T05:45:03.024Z,27.87
2018-10-02T05:45:34.160Z,26.33
2018-10-02T05:46:05.277Z,26.23
2018-10-02T05:46:36.387Z,25.23
2018-10-02T05:47:07.507Z,22.95
2018-10-02T05:47:38.669Z,28.47
2018-10-02T05:48:09.771Z,28.65
2018-10-02T05:48:40.902Z,29.67
2018-10-02T05:49:12.016Z,33.23
2018-10-02T05:49:43.137Z,24.72
2018-10-02T05:50:14.244Z,29.27
2018-10-02T05:50:45.360Z,26.97
2018-10-02T05:51:16.484Z,18.23
2018-10-02T05:51:48.685Z,21.93
2018-10-02T05:52:19.855Z,18.67
2018-10-02T05:52:50.989Z,21.45
2018-10-02T05:53:22.088Z,18.00
2018-10-02T05:53:53.197Z,14.15
2018-10-02T05:54:24.313Z,16.15
2018-10-02T05:54:55.462Z,16.95
2018-10-02T05:55:26.573Z,20.02
2018-10-02T05:55:57.708Z,19.70
2018-10-02T05:56:28.840Z,19.27
2018-10-02T05:56:59.978Z,23.98
2018-10-02T05:57:31.082Z,17.77
2018-10-02T05:58:02.273Z,19.90
2018-10-02T05:58:33.379Z,21.00
2018-10-02T05:59:04.487Z,22.90
2018-10-02T05:59:35.600Z,19.77
2018-10-02T06:00:06.708Z,22.30
2018-10-02T06:00:37.892Z,24.63
2018-10-02T06:01:09.006Z,21.10
2018-10-02T06:01:40.138Z,20.75
2018-10-02T06:02:11.294Z,19.75
2018-10-02T06:02:42.415Z,22.65
2018-10-02T06:03:13.600Z,20.95
2018-10-02T06:03:44.786Z,23.12
2018-10-02T06:04:15.888Z,27.50
2018-10-02T06:04:47.006Z,31.68
2018-10-02T06:05:18.155Z,25.43
2018-10-02T06:05:49.301Z,22.82
2018-10-02T06:06:20.441Z,22.52
2018-10-02T06:06:51.564Z,20.72
2018-10-02T06:07:22.754Z,21.85
2018-10-02T06:07:53.908Z,19.73
2018-10-02T06:08:25.077Z,23.60
2018-10-02T06:08:56.214Z,23.18
2018-10-02T06:09:27.338Z,18.92
2018-10-02T06:09:58.486Z,19.05
2018-10-02T06:10:29.690Z,20.05
2018-10-02T06:11:00.850Z,22.48
2018-10-02T06:11:31.970Z,23.12
2018-10-02T06:12:03.154Z,19.50
2018-10-02T06:12:34.280Z,13.75
2018-10-02T06:13:05.436Z,13.70
2018-10-02T06:13:36.609Z,14.05
2018-10-02T06:14:07.723Z,14.78
2018-10-02T06:14:39.156Z,19.77
2018-10-02T06:15:10.316Z,20.05
2018-10-02T06:15:41.440Z,18.17
2018-10-02T06:16:12.578Z,13.88
2018-10-02T06:16:43.776Z,14.95
2018-10-02T06:17:14.923Z,16.62
2018-10-02T06:17:46.064Z,15.80
2018-10-02T06:18:17.351Z,14.47
2018-10-02T06:18:49.616Z,12.88
2018-10-02T06:19:20.707Z,13.25
2018-10-02T06:19:51.818Z,17.80
2018-10-02T06:20:22.968Z,15.75
2018-10-02T06:20:54.147Z,17.60
2018-10-02T06:21:25.273Z,19.20
2018-10-02T06:21:56.460Z,15.45
2018-10-02T06:22:27.589Z,13.58
2018-10-02T06:22:58.720Z,12.20
2018-10-02T06:23:29.851Z,13.75
2018-10-02T06:24:00.988Z,18.10
2018-10-02T06:24:32.146Z,15.38
2018-10-02T06:25:03.347Z,14.28
2018-10-02T06:25:34.471Z,11.53
2018-10-02T06:26:05.693Z,12.63
2018-10-02T06:26:36.805Z,13.62
2018-10-02T06:27:07.966Z,12.58
2018-10-02T06:27:39.181Z,16.07
2018-10-02T06:28:10.300Z,16.25
2018-10-02T06:28:41.413Z,17.02
2018-10-02T06:29:12.531Z,13.68
2018-10-02T06:29:43.650Z,13.05
2018-10-02T06:30:14.804Z,12.78
2018-10-02T06:30:45.905Z,15.15
2018-10-02T06:31:17.167Z,13.90
2018-10-02T06:31:48.294Z,12.90
2018-10-02T06:32:19.423Z,12.68
2018-10-02T06:32:50.626Z,12.68
2018-10-02T06:33:21.673Z,13.55
2018-10-02T06:33:52.870Z,13.18
2018-10-02T06:34:23.991Z,10.88
2018-10-02T06:34:55.098Z,11.95
2018-10-02T06:35:26.236Z,12.23
2018-10-02T06:35:57.368Z,10.23
2018-10-02T06:36:28.530Z,14.53
2018-10-02T06:36:59.792Z,15.25
2018-10-02T06:37:30.902Z,13.90
2018-10-02T06:38:02.225Z,9.83
2018-10-02T06:38:33.469Z,10.35
2018-10-02T06:39:04.559Z,12.03
2018-10-02T06:39:35.660Z,11.78
2018-10-02T06:40:06.852Z,13.08
2018-10-02T06:40:38.002Z,11.35